Dubai Moon-i — 3EHR8 — position and weather

sailwx.info

Track history (hours):
 
Tides and Currents Weather Stations Pressure Air Temp Water Temp Dewpoint Dewpoint Depression Visibility Wind Speed Wind Dir Waves Ship Positions

Dubai Moon-i

Last reported at 2018-Feb-06 15:43 UTC. Time now 2018-Feb-23 03:07 UTC.
Position N 27°56' W 015°06'.
Warning: this ship's position is 16 days out of date.

Length 180 m; draft 9.9 m.

Type: Cargo ship. MMSI: 373658000.

Date/timePositionNaut miles runAvg speedWind from/ knotsBaromVisibWave heightAir tempDewpointWater temp
2018-Feb-06 15:43N 27°56' W 015°06'612.3
2018-Feb-06 15:11N 28°02' W 015°03'212.4
2018-Feb-06 15:00N 28°04' W 015°02'612.4
2018-Feb-06 14:30N 28°09' W 014°59'1312.6
2018-Feb-06 13:30N 28°21' W 014°55'  
2018-Feb-01 00:20N 50°29' W 000°09'411.3
2018-Feb-01 00:00N 50°30' W 000°04'6610.1
2018-Jan-31 17:29N 51°03' E 001°26'812.5
2018-Jan-31 16:51N 51°08' E 001°36'411.7
2018-Jan-31 16:30N 51°10' E 001°41'611.3
2018-Jan-31 15:59N 51°14' E 001°47'510.6
2018-Jan-31 15:30N 51°19' E 001°51'510.1
2018-Jan-31 15:00N 51°24' E 001°54'5 9.3
2018-Jan-31 14:30N 51°28' E 001°58'  
2018-Jan-28 05:03N 57°50' E 010°41'5 8.9
2018-Jan-28 04:31N 57°47' E 010°47'0 8.8
2018-Jan-28 04:30N 57°47' E 010°47'6 6.7
2018-Jan-28 03:36N 57°41' E 010°47'1 9.2
2018-Jan-28 03:29N 57°40' E 010°48'510.0
2018-Jan-28 03:00N 57°39' E 010°57'510.3
2018-Jan-28 02:30N 57°38' E 011°06'510.8
2018-Jan-28 02:00N 57°34' E 011°13'510.8
2018-Jan-28 01:30N 57°30' E 011°21'510.4
2018-Jan-28 01:00N 57°26' E 011°27'811.5
2018-Jan-28 00:19N 57°19' E 011°32'  
Track history (hours):
 
Tides and Currents Weather Stations Pressure Air Temp Water Temp Dewpoint Dewpoint Depression Visibility Wind Speed Wind Dir Waves Ship Positions

Dubai Moon-i

Last reported at 2018-Feb-06 15:43 UTC. Time now 2018-Feb-23 03:07 UTC.
Position N 27°56' W 015°06'.
Warning: this ship's position is 16 days out of date.

Length 180 m; draft 9.9 m.

Type: Cargo ship. MMSI: 373658000.

Date/timePositionNaut miles runAvg speedWind from/ knotsBaromVisibWave heightAir tempDewpointWater temp
2018-Feb-06 15:43N 27°56' W 015°06'612.3
2018-Feb-06 15:11N 28°02' W 015°03'212.4
2018-Feb-06 15:00N 28°04' W 015°02'612.4
2018-Feb-06 14:30N 28°09' W 014°59'1312.6
2018-Feb-06 13:30N 28°21' W 014°55'  
2018-Feb-01 00:20N 50°29' W 000°09'411.3
2018-Feb-01 00:00N 50°30' W 000°04'6610.1
2018-Jan-31 17:29N 51°03' E 001°26'812.5
2018-Jan-31 16:51N 51°08' E 001°36'411.7
2018-Jan-31 16:30N 51°10' E 001°41'611.3
2018-Jan-31 15:59N 51°14' E 001°47'510.6
2018-Jan-31 15:30N 51°19' E 001°51'510.1
2018-Jan-31 15:00N 51°24' E 001°54'5 9.3
2018-Jan-31 14:30N 51°28' E 001°58'  
2018-Jan-28 05:03N 57°50' E 010°41'5 8.9
2018-Jan-28 04:31N 57°47' E 010°47'0 8.8
2018-Jan-28 04:30N 57°47' E 010°47'6 6.7
2018-Jan-28 03:36N 57°41' E 010°47'1 9.2
2018-Jan-28 03:29N 57°40' E 010°48'510.0
2018-Jan-28 03:00N 57°39' E 010°57'510.3
2018-Jan-28 02:30N 57°38' E 011°06'510.8
2018-Jan-28 02:00N 57°34' E 011°13'510.8
2018-Jan-28 01:30N 57°30' E 011°21'510.4
2018-Jan-28 01:00N 57°26' E 011°27'811.5
2018-Jan-28 00:19N 57°19' E 011°32'  

Dump ship's entire track history